Time;durP1;ratioP1;P1;durP2;ratioP2;P2;SDS_P1;SDS_P2;PMS_P1;PMS_P2;Temp;Humidity;BMP_temperature;BMP_pressure;BME280_temperature;BME280_humidity;BME280_pressure;Samples;Min_cycle;Max_cycle;Signal;HPM_P1;HPM_P2
2022/03/14 00:00:44;;;;;;;11.02;5.03;;;;;;;4.17;58.53;99807.84;5002414;28;20525;-71
2022/03/14 00:03:12;;;;;;;12.23;4.72;;;;;;;4.37;58.31;99823.78;5000689;28;20069;-68
2022/03/14 00:05:38;;;;;;;11.52;5.13;;;;;;;4.30;58.35;99825.78;5001879;28;20072;-68
2022/03/14 00:08:06;;;;;;;13.63;5.05;;;;;;;4.25;58.59;99823.75;5009919;28;20054;-69
2022/03/14 00:10:34;;;;;;;12.35;5.15;;;;;;;4.30;58.40;99828.47;5003750;28;20054;-68
2022/03/14 00:13:01;;;;;;;11.75;5.30;;;;;;;4.24;58.55;99822.09;4992920;28;20530;-68
2022/03/14 00:15:33;;;;;;;12.80;5.60;;;;;;;4.28;58.43;99828.69;5008324;28;20425;-69
2022/03/14 00:18:01;;;;;;;13.55;5.07;;;;;;;4.42;57.96;99820.38;4992488;28;20076;-70
2022/03/14 00:23:13;;;;;;;12.05;5.28;;;;;;;4.23;58.58;99817.75;5007947;28;20119;-69
2022/03/14 00:25:39;;;;;;;14.60;5.80;;;;;;;4.24;58.51;99824.81;4994822;28;20057;-71
2022/03/14 00:28:05;;;;;;;13.45;5.45;;;;;;;4.22;58.59;99825.03;4989812;28;20050;-71
2022/03/14 00:30:31;;;;;;;12.68;5.53;;;;;;;4.20;58.42;99829.03;5005582;28;20064;-69
2022/03/14 00:32:58;;;;;;;12.85;5.50;;;;;;;4.18;58.55;99812.19;5009473;28;20054;-69
2022/03/14 00:35:25;;;;;;;11.30;4.80;;;;;;;4.19;58.59;99828.22;5007803;28;20663;-69
2022/03/14 00:37:52;;;;;;;13.23;5.25;;;;;;;4.21;58.48;99822.56;5008558;28;20050;-71
2022/03/14 00:40:18;;;;;;;11.43;4.90;;;;;;;4.19;58.60;99824.66;5007553;28;20144;-68
2022/03/14 00:42:50;;;;;;;12.20;4.93;;;;;;;4.30;58.18;99818.47;4992224;28;20061;-68
2022/03/14 00:45:17;;;;;;;10.48;4.97;;;;;;;4.27;58.14;99827.06;5008092;28;20057;-71
2022/03/14 00:47:43;;;;;;;10.63;4.65;;;;;;;4.25;58.17;99821.84;5008586;28;20049;-70
2022/03/14 00:50:10;;;;;;;12.77;4.85;;;;;;;4.15;58.35;99818.91;5009033;28;20053;-70
2022/03/14 00:52:36;;;;;;;10.70;4.78;;;;;;;4.21;58.21;99817.13;5009490;28;20065;-69
2022/03/14 00:55:04;;;;;;;11.43;4.75;;;;;;;4.28;58.02;99823.28;5006364;28;20093;-70
2022/03/14 00:57:30;;;;;;;13.60;5.15;;;;;;;4.28;58.17;99825.16;5001508;28;20529;-70
2022/03/14 00:59:57;;;;;;;14.40;5.00;;;;;;;4.29;57.92;99821.38;5009560;28;20411;-70
2022/03/14 01:02:24;;;;;;;11.18;4.78;;;;;;;4.26;58.18;99820.81;5009744;28;20316;-70
2022/03/14 01:04:50;;;;;;;11.35;4.97;;;;;;;4.30;57.75;99825.78;5009225;28;20580;-70
2022/03/14 01:07:17;;;;;;;10.45;4.55;;;;;;;4.32;57.82;99818.25;5005833;28;20116;-71
2022/03/14 01:09:43;;;;;;;13.10;4.97;;;;;;;4.27;58.00;99805.41;5010684;28;20046;-74
2022/03/14 01:12:10;;;;;;;11.27;4.63;;;;;;;4.19;58.15;99803.84;5011765;28;20046;-73
2022/03/14 01:14:37;;;;;;;11.45;4.75;;;;;;;4.26;57.95;99814.59;4991392;28;20530;-70
2022/03/14 01:17:04;;;;;;;13.40;4.80;;;;;;;4.20;58.07;99810.91;5010823;28;20535;-69
2022/03/14 01:19:30;;;;;;;11.25;4.90;;;;;;;4.25;57.98;99818.34;5005292;28;20608;-70
2022/03/14 01:21:56;;;;;;;11.05;5.47;;;;;;;4.28;58.03;99820.59;5012022;28;20149;-70
2022/03/14 01:24:24;;;;;;;12.85;5.43;;;;;;;4.26;57.87;99815.38;5011270;28;20054;-69
2022/03/14 01:26:52;;;;;;;12.60;5.05;;;;;;;4.31;57.65;99817.41;5010522;28;20074;-70
2022/03/14 01:29:19;;;;;;;12.30;4.97;;;;;;;4.38;57.57;99809.19;4994013;28;20073;-71
2022/03/14 01:31:45;;;;;;;12.35;5.38;;;;;;;4.31;57.56;99811.19;5012398;28;20506;-70
2022/03/14 01:34:11;;;;;;;11.45;5.10;;;;;;;4.30;57.72;99825.78;5008449;28;20119;-70
2022/03/14 01:36:38;;;;;;;11.48;4.85;;;;;;;4.30;57.63;99825.78;5012723;28;20137;-73
2022/03/14 01:39:05;;;;;;;10.95;5.15;;;;;;;4.32;57.63;99826.38;5011845;28;20062;-72
2022/03/14 01:41:31;;;;;;;13.05;4.97;;;;;;;4.23;57.73;99812.34;4994537;28;20049;-73
2022/03/14 01:44:01;;;;;;;11.93;4.80;;;;;;;4.34;57.67;99818.81;4991600;28;20087;-73
2022/03/14 01:46:28;;;;;;;12.57;5.15;;;;;;;4.32;57.65;99820.94;5011250;28;20081;-73
2022/03/14 01:48:55;;;;;;;12.70;4.72;;;;;;;4.14;57.66;99809.16;4994577;28;20331;-73
2022/03/14 01:51:25;;;;;;;10.77;4.82;;;;;;;4.34;57.45;99824.25;4993889;28;20485;-73
2022/03/14 01:53:52;;;;;;;13.23;4.87;;;;;;;4.28;57.79;99820.59;4992014;28;20078;-73
2022/03/14 01:56:18;;;;;;;10.87;4.50;;;;;;;4.34;57.67;99826.94;5009636;28;20080;-73
2022/03/14 01:58:46;;;;;;;12.45;4.90;;;;;;;4.30;57.55;99829.28;5011825;28;20081;-74
2022/03/14 02:01:12;;;;;;;13.43;5.18;;;;;;;4.35;57.53;99829.41;4993016;28;20053;-73
2022/03/14 02:03:40;;;;;;;11.55;4.78;;;;;;;4.29;57.87;99827.63;5011802;28;20057;-73
2022/03/14 02:06:06;;;;;;;;;;;;;;;4.33;57.62;99826.13;5011994;28;20084;-72
2022/03/14 02:08:32;;;;;;;10.60;5.10;;;;;;;4.27;57.64;99824.34;5011917;28;19925;-72
2022/03/14 02:10:58;;;;;;;12.35;5.32;;;;;;;4.26;57.72;99826.22;4991837;28;20064;-72
2022/03/14 02:13:25;;;;;;;12.48;4.80;;;;;;;4.22;57.75;99826.94;4993364;28;20156;-72
2022/03/14 02:15:51;;;;;;;12.02;4.80;;;;;;;4.31;57.67;99841.75;5011811;28;20065;-72
2022/03/14 02:18:17;;;;;;;10.85;4.68;;;;;;;4.35;57.66;99839.44;5011610;28;20062;-72
2022/03/14 02:20:44;;;;;;;13.18;5.15;;;;;;;4.33;57.51;99834.22;5008684;28;20054;-72
2022/03/14 02:23:11;;;;;;;10.30;4.78;;;;;;;4.30;57.84;99831.19;5009384;28;20124;-72
2022/03/14 02:25:47;;;;;;;10.70;5.17;;;;;;;4.37;57.55;99842.72;5010972;28;20077;-72
2022/03/14 02:28:15;;;;;;;11.07;4.78;;;;;;;4.33;57.66;99836.94;4993566;28;20520;-73
2022/03/14 02:30:42;;;;;;;11.93;5.03;;;;;;;4.38;57.45;99842.50;5008253;28;20054;-72
2022/03/14 02:33:08;;;;;;;15.10;5.63;;;;;;;4.40;57.44;99839.53;4961374;28;20053;-71
2022/03/14 02:35:39;;;;;;;12.48;4.70;;;;;;;4.37;57.46;99845.44;4993831;28;20481;-72
2022/03/14 02:38:09;;;;;;;12.10;5.25;;;;;;;4.40;57.46;99848.50;4976410;28;20434;-72
2022/03/14 02:40:39;;;;;;;12.95;4.82;;;;;;;4.40;57.69;99840.38;4993343;28;20080;-72
2022/03/14 02:43:05;;;;;;;11.68;4.95;;;;;;;4.44;57.33;99856.97;5010566;28;20085;-73
2022/03/14 02:45:32;;;;;;;11.55;5.05;;;;;;;4.42;57.63;99850.97;5009877;28;20096;-73
2022/03/14 02:47:58;;;;;;;14.10;5.40;;;;;;;4.37;57.12;99848.97;4992044;28;20124;-73
2022/03/14 02:50:25;;;;;;;15.93;5.50;;;;;;;4.34;57.77;99854.84;4991679;28;20054;-73
2022/03/14 02:52:51;;;;;;;14.00;5.25;;;;;;;4.40;57.67;99845.81;5011481;28;20062;-73
2022/03/14 02:55:21;;;;;;;12.25;5.05;;;;;;;4.44;57.40;99856.16;4992865;28;20070;-72
2022/03/14 02:57:47;;;;;;;10.75;4.88;;;;;;;4.43;57.25;99863.44;5009404;28;20073;-72
2022/03/14 03:00:14;;;;;;;11.65;4.40;;;;;;;4.30;57.50;99836.59;5010341;28;20057;-72
2022/03/14 03:02:42;;;;;;;12.45;5.22;;;;;;;4.43;57.34;99852.59;5009769;28;20060;-72
2022/03/14 03:05:08;;;;;;;11.68;4.68;;;;;;;4.25;57.61;99838.09;4976899;28;20054;-72
2022/03/14 03:07:36;;;;;;;12.27;5.30;;;;;;;4.40;57.56;99859.34;5008264;28;20127;-72
2022/03/14 03:10:04;;;;;;;13.00;5.22;;;;;;;4.37;57.66;99857.09;5009567;28;20065;-71
2022/03/14 03:12:37;;;;;;;10.68;5.10;;;;;;;4.26;57.63;99841.66;5003513;28;20050;-71
2022/03/14 03:15:05;;;;;;;12.77;5.30;;;;;;;4.38;57.66;99857.91;5005895;28;20060;-72
2022/03/14 03:17:30;;;;;;;;;;;;;;;4.42;57.73;99858.28;5010050;28;20054;-71
2022/03/14 03:19:57;;;;;;;10.52;5.15;;;;;;;4.40;57.54;99858.50;4992942;28;20407;-73
2022/03/14 03:22:25;;;;;;;14.10;5.43;;;;;;;4.40;57.44;99848.50;5009329;28;20077;-72
2022/03/14 03:24:51;;;;;;;11.48;5.13;;;;;;;4.44;57.65;99861.56;5008909;28;20093;-72
2022/03/14 03:27:17;;;;;;;11.48;5.25;;;;;;;4.37;57.57;99853.56;5008084;28;20514;-72
2022/03/14 03:29:44;;;;;;;12.80;5.25;;;;;;;4.39;57.66;99857.69;5010689;28;20053;-73
2022/03/14 03:32:10;;;;;;;13.18;5.30;;;;;;;4.40;57.83;99848.50;5008149;28;20060;-73
2022/03/14 03:34:37;;;;;;;11.85;5.40;;;;;;;4.38;57.56;99849.78;5009229;28;20073;-73
2022/03/14 03:37:03;;;;;;;12.88;5.70;;;;;;;4.42;57.90;99859.09;5007340;28;20073;-72
2022/03/14 03:39:30;;;;;;;10.85;5.05;;;;;;;4.40;57.92;99855.78;5010604;28;20057;-73
2022/03/14 03:41:56;;;;;;;17.70;8.40;;;;;;;4.45;57.80;99849.69;4976642;28;20141;-72
2022/03/14 03:44:22;;;;;;;38.92;19.10;;;;;;;4.42;57.81;99852.88;4988713;28;20336;-72
2022/03/14 03:46:49;;;;;;;29.13;15.18;;;;;;;4.40;57.93;99859.34;5008317;28;20050;-72
2022/03/14 03:49:15;;;;;;;19.70;10.20;;;;;;;4.42;57.86;99871.81;5009802;28;20510;-73
2022/03/14 03:51:44;;;;;;;20.08;9.15;;;;;;;4.45;57.82;99874.88;5008262;28;20054;-72
2022/03/14 03:54:10;;;;;;;17.67;8.25;;;;;;;4.44;57.90;99864.28;5008596;28;20070;-72
2022/03/14 03:56:38;;;;;;;13.98;7.03;;;;;;;4.46;57.94;99873.84;5009871;28;20092;-73
2022/03/14 03:59:05;;;;;;;18.35;6.07;;;;;;;4.42;57.84;99874.53;5008720;28;20541;-72
2022/03/14 04:01:31;;;;;;;12.88;6.18;;;;;;;4.43;58.04;99876.16;5009129;28;20076;-73
2022/03/14 04:03:59;;;;;;;15.00;6.30;;;;;;;4.44;57.89;99875.91;5007828;28;20100;-73
2022/03/14 04:06:26;;;;;;;12.77;5.55;;;;;;;4.52;57.84;99874.75;5007198;28;20058;-72
2022/03/14 04:08:52;;;;;;;11.98;6.00;;;;;;;4.52;57.79;99880.16;4992385;28;20046;-72
2022/03/14 04:11:21;;;;;;;10.75;5.50;;;;;;;4.51;57.75;99875.81;5008130;28;20152;-72
2022/03/14 04:13:48;;;;;;;14.15;6.20;;;;;;;4.54;57.64;99873.47;4991948;28;20065;-73
2022/03/14 04:16:17;;;;;;;12.93;6.37;;;;;;;4.49;57.85;99878.78;5009465;28;20062;-73
2022/03/14 04:18:47;;;;;;;36.00;16.13;;;;;;;4.51;57.86;99878.53;5009643;28;20442;-73
2022/03/14 04:21:14;;;;;;;29.90;15.15;;;;;;;4.57;57.74;99877.63;5005470;28;20408;-73
2022/03/14 04:23:40;;;;;;;24.05;12.48;;;;;;;4.60;57.72;99887.97;4992586;28;20277;-73
2022/03/14 04:26:07;;;;;;;19.95;9.52;;;;;;;4.58;58.01;99883.84;5007780;28;20411;-73
2022/03/14 04:28:36;;;;;;;18.85;9.32;;;;;;;4.59;57.83;99890.91;4991835;28;20050;-72
2022/03/14 04:31:03;;;;;;;19.15;9.60;;;;;;;4.56;58.02;99877.84;5009175;28;20112;-72
2022/03/14 04:33:30;;;;;;;;;;;;;;;4.61;57.74;99891.53;5001341;28;20084;-73
2022/03/14 04:35:57;;;;;;;14.43;7.80;;;;;;;4.59;57.77;99883.63;5007890;28;19929;-73
2022/03/14 04:38:24;;;;;;;18.42;8.80;;;;;;;4.58;58.00;99891.97;5008869;28;20667;-73
2022/03/14 04:40:50;;;;;;;18.47;9.00;;;;;;;4.60;57.89;99893.38;4990902;28;20530;-72
2022/03/14 04:43:17;;;;;;;16.23;8.95;;;;;;;4.58;58.20;99894.66;4991761;28;20112;-74
2022/03/14 04:45:44;;;;;;;18.23;8.60;;;;;;;4.60;58.22;99904.22;5012292;28;20050;-73
2022/03/14 04:48:10;;;;;;;19.63;8.13;;;;;;;4.62;58.19;99895.88;5011436;28;20050;-74
2022/03/14 04:50:37;;;;;;;17.13;9.43;;;;;;;4.54;58.51;99891.63;4995282;28;20528;-74
2022/03/14 04:53:03;;;;;;;16.80;9.05;;;;;;;4.38;58.63;99850.63;4978525;28;20050;-72
2022/03/14 04:55:30;;;;;;;21.30;9.07;;;;;;;4.58;58.56;99879.25;5012488;28;20054;-74
2022/03/14 04:57:56;;;;;;;19.75;9.07;;;;;;;4.55;58.52;99890.56;5010978;28;20050;-73
2022/03/14 05:00:24;;;;;;;17.48;9.00;;;;;;;4.54;58.77;99889.72;5010793;28;20061;-72
2022/03/14 05:02:50;;;;;;;17.55;9.23;;;;;;;4.55;58.70;99885.16;5012147;28;20052;-71
2022/03/14 05:05:17;;;;;;;39.95;21.55;;;;;;;4.62;58.44;99891.28;5009617;28;20060;-72
2022/03/14 05:07:44;;;;;;;35.22;18.02;;;;;;;4.52;58.36;99872.06;4994569;28;20377;-72
2022/03/14 05:10:10;;;;;;;29.73;13.35;;;;;;;4.66;58.28;99897.88;5012384;28;20108;-72
2022/03/14 05:12:39;;;;;;;22.77;11.73;;;;;;;4.67;58.52;99898.69;5012042;28;20058;-71
2022/03/14 05:15:05;;;;;;;;;;;;;;;4.68;58.58;99905.78;5011707;28;20057;-72
2022/03/14 05:17:32;;;;;;;18.85;8.93;;;;;;;4.67;58.45;99914.97;4993292;28;19957;-73
2022/03/14 05:19:58;;;;;;;19.52;9.93;;;;;;;4.65;58.37;99907.06;4994944;28;20934;-73
2022/03/14 05:22:24;;;;;;;17.98;8.98;;;;;;;4.65;58.48;99915.19;4993636;28;20057;-73
2022/03/14 05:24:51;;;;;;;18.15;8.73;;;;;;;4.59;58.43;99894.44;4992815;28;20111;-73
2022/03/14 05:27:17;;;;;;;19.58;9.02;;;;;;;4.67;58.32;99904.94;5010936;28;20104;-73
2022/03/14 05:29:44;;;;;;;18.02;7.97;;;;;;;4.73;58.16;99926.75;4994257;28;20449;-73
2022/03/14 05:32:10;;;;;;;16.85;8.68;;;;;;;4.80;57.84;99922.88;4994313;28;20407;-73
2022/03/14 05:34:36;;;;;;;20.55;8.40;;;;;;;4.80;57.93;99912.03;5008652;28;20049;-74
2022/03/14 05:37:02;;;;;;;18.35;8.13;;;;;;;4.77;57.74;99907.09;5010801;28;20074;-73
2022/03/14 05:39:29;;;;;;;17.65;8.10;;;;;;;4.80;57.86;99922.03;5010415;28;20623;-70
2022/03/14 05:41:55;;;;;;;15.77;7.13;;;;;;;4.82;57.61;99911.78;5011104;28;20509;-76
2022/03/14 05:44:22;;;;;;;15.73;8.07;;;;;;;4.85;57.40;99922.19;4994386;28;20054;-71
2022/03/14 05:46:49;;;;;;;20.90;7.97;;;;;;;4.83;57.18;99919.69;5012610;28;20152;-75
2022/03/14 05:49:15;;;;;;;14.23;7.10;;;;;;;4.88;57.16;99920.88;5011664;28;20054;-79
2022/03/14 05:51:41;;;;;;;13.52;6.85;;;;;;;4.85;57.05;99930.31;4993293;28;20494;-78
2022/03/14 05:54:08;;;;;;;15.20;7.28;;;;;;;4.80;56.93;99911.19;5002438;28;20058;-76
2022/03/14 05:56:35;;;;;;;13.65;6.20;;;;;;;4.90;56.72;99919.59;4992918;28;20481;-76
2022/03/14 05:59:02;;;;;;;14.23;6.15;;;;;;;4.85;56.32;99913.22;4999864;28;20149;-72
2022/03/14 06:01:28;;;;;;;19.17;6.20;;;;;;;4.79;56.06;99902.25;4984885;28;20058;-72
2022/03/14 06:03:55;;;;;;;14.85;6.15;;;;;;;4.92;55.88;99928.28;5010839;28;20061;-71
2022/03/14 06:06:22;;;;;;;15.20;5.68;;;;;;;4.96;55.55;99924.06;4998700;28;20050;-73
2022/03/14 06:08:48;;;;;;;15.30;5.75;;;;;;;5.02;55.44;99929.63;5012438;28;20060;-71
2022/03/14 06:11:15;;;;;;;14.57;5.93;;;;;;;5.08;55.00;99925.94;5009256;28;20537;-70
2022/03/14 06:13:42;;;;;;;14.57;6.00;;;;;;;4.98;54.72;99902.16;4994101;28;20062;-69
2022/03/14 06:16:08;;;;;;;14.57;5.90;;;;;;;5.17;54.26;99926.41;4991439;28;20514;-71
2022/03/14 06:18:34;;;;;;;15.73;5.65;;;;;;;5.03;54.12;99934.78;4996888;28;20062;-75
2022/03/14 06:21:01;;;;;;;15.50;4.78;;;;;;;4.97;54.07;99928.41;5008526;28;20061;-71
2022/03/14 06:23:27;;;;;;;12.32;5.10;;;;;;;4.96;54.02;99931.38;5010232;28;20137;-70
2022/03/14 06:25:54;;;;;;;32.28;14.50;;;;;;;5.04;53.71;99933.72;4976429;28;20058;-70
2022/03/14 06:28:22;;;;;;;22.35;11.18;;;;;;;5.06;53.49;99920.75;5011543;28;20080;-71
2022/03/14 06:30:50;;;;;;;18.35;7.78;;;;;;;4.95;53.31;99913.47;4977280;28;20050;-70
2022/03/14 06:33:16;;;;;;;13.25;5.85;;;;;;;5.08;53.06;99923.25;5009838;28;20061;-71
2022/03/14 06:35:46;;;;;;;13.27;5.50;;;;;;;5.17;52.60;99929.97;5011172;28;20060;-73
2022/03/14 06:38:13;;;;;;;13.65;5.15;;;;;;;5.13;52.40;99926.06;5010465;28;20108;-71
2022/03/14 06:40:42;;;;;;;13.38;4.70;;;;;;;5.21;52.03;99931.16;5010162;28;20053;-71
2022/03/14 06:43:11;;;;;;;12.18;3.88;;;;;;;5.34;50.80;99940.09;5009212;28;20054;-72
2022/03/14 06:45:39;;;;;;;14.45;3.00;;;;;;;5.34;50.25;99949.03;4993358;28;20100;-71
2022/03/14 06:48:06;;;;;;;8.00;2.65;;;;;;;5.34;49.10;99948.25;4976553;28;20086;-72
2022/03/14 06:50:35;;;;;;;8.05;2.83;;;;;;;5.37;48.06;99954.00;4993401;28;20056;-71
2022/03/14 06:53:01;;;;;;;8.50;2.55;;;;;;;5.45;47.64;99946.56;4992543;28;20759;-71
2022/03/14 06:55:29;;;;;;;9.82;2.78;;;;;;;5.45;46.80;99969.09;5008960;28;20053;-72
2022/03/14 06:57:55;;;;;;;8.43;2.53;;;;;;;5.46;45.78;99953.66;4993147;28;20054;-71
2022/03/14 07:00:21;;;;;;;7.32;2.50;;;;;;;5.41;45.85;99962.50;4992407;28;20064;-72
2022/03/14 07:02:48;;;;;;;7.38;2.28;;;;;;;5.39;45.67;99968.16;5010801;28;20046;-71
2022/03/14 07:05:20;;;;;;;8.85;2.50;;;;;;;5.38;45.29;99962.97;5013126;28;20065;-71
2022/03/14 07:07:46;;;;;;;8.18;2.50;;;;;;;5.53;44.73;99965.19;5008865;28;20089;-72
2022/03/14 07:10:16;;;;;;;6.28;2.20;;;;;;;5.62;44.23;99962.94;4992861;28;20053;-72
2022/03/14 07:12:48;;;;;;;7.60;2.53;;;;;;;5.67;43.76;99958.44;5008171;28;20050;-72
2022/03/14 07:15:16;;;;;;;7.63;2.85;;;;;;;5.64;43.79;99956.22;5012122;28;20057;-72
2022/03/14 07:17:43;;;;;;;6.35;1.98;;;;;;;5.67;43.42;99954.94;5010383;28;20510;-72
2022/03/14 07:20:11;;;;;;;21.13;7.05;;;;;;;5.70;42.87;99964.47;5010072;28;20561;-72
2022/03/14 07:22:48;;;;;;;14.25;4.63;;;;;;;5.64;42.51;99948.09;5009479;28;20622;-72
2022/03/14 07:25:18;;;;;;;10.93;3.63;;;;;;;5.48;42.67;99955.06;4992597;28;20070;-70
2022/03/14 07:27:45;;;;;;;7.35;2.70;;;;;;;5.51;42.71;99956.47;5008925;28;20053;-71
2022/03/14 07:30:14;;;;;;;6.80;2.60;;;;;;;5.52;42.44;99955.41;5004725;28;20141;-73
2022/03/14 07:32:40;;;;;;;8.35;2.75;;;;;;;5.49;42.48;99945.88;5005572;28;20632;-74
2022/03/14 07:35:08;;;;;;;9.68;2.63;;;;;;;5.54;42.38;99945.97;4992957;28;20128;-74
2022/03/14 07:37:34;;;;;;;7.13;2.45;;;;;;;5.64;42.26;99953.50;4993593;28;20058;-74
2022/03/14 07:40:00;;;;;;;9.18;2.85;;;;;;;5.64;42.15;99958.13;5005673;28;20054;-75
2022/03/14 07:42:28;;;;;;;10.00;2.35;;;;;;;5.79;42.01;99958.44;4996222;28;20064;-73
2022/03/14 07:44:54;;;;;;;;;;;;;;;5.92;41.68;99957.34;4977188;28;20058;-74
2022/03/14 07:47:20;;;;;;;7.03;2.15;;;;;;;5.96;41.38;99946.84;5007945;28;20019;-70
2022/03/14 07:49:46;;;;;;;12.00;3.78;;;;;;;6.02;41.20;99955.94;5005840;28;20062;-70
2022/03/14 07:52:13;;;;;;;13.68;5.05;;;;;;;5.91;40.71;99939.41;5004582;28;20557;-71
2022/03/14 07:54:39;;;;;;;11.40;4.20;;;;;;;5.99;41.03;99951.78;5009627;28;20050;-69
2022/03/14 07:57:06;;;;;;;12.75;3.20;;;;;;;5.99;41.22;99945.53;4993031;28;20539;-69
2022/03/14 07:59:32;;;;;;;11.27;2.80;;;;;;;6.01;41.28;99957.81;5006326;28;20053;-71
2022/03/14 08:01:59;;;;;;;7.63;2.50;;;;;;;6.13;40.96;99956.97;5003032;28;20050;-70
2022/03/14 08:04:25;;;;;;;10.48;2.85;;;;;;;6.24;40.86;99958.81;4990918;28;20065;-70
2022/03/14 08:06:51;;;;;;;6.68;2.92;;;;;;;6.29;40.62;99949.94;5009732;28;20064;-70
2022/03/14 08:09:21;;;;;;;6.88;2.00;;;;;;;6.30;40.71;99954.28;4991222;28;20110;-70
2022/03/14 08:11:47;;;;;;;8.50;2.80;;;;;;;6.37;40.38;99947.66;5009899;28;20340;-70
2022/03/14 08:14:13;;;;;;;8.70;2.08;;;;;;;6.44;40.20;99950.22;5008837;28;20299;-70
2022/03/14 08:16:39;;;;;;;8.00;2.50;;;;;;;6.50;40.24;99957.41;5009420;28;20141;-70
2022/03/14 08:19:06;;;;;;;13.10;2.60;;;;;;;6.67;40.03;99951.19;5010707;28;20137;-69
2022/03/14 08:21:33;;;;;;;12.48;2.45;;;;;;;6.67;39.75;99946.56;5012409;28;20061;-70
2022/03/14 08:23:59;;;;;;;8.07;2.50;;;;;;;6.70;39.73;99961.56;5013025;28;20046;-70
2022/03/14 08:26:25;;;;;;;7.50;2.25;;;;;;;6.78;39.34;99954.88;5012717;28;20137;-70
2022/03/14 08:28:51;;;;;;;13.68;2.95;;;;;;;6.83;39.40;99951.44;5011601;28;20061;-70
2022/03/14 08:31:18;;;;;;;7.97;2.15;;;;;;;6.97;39.02;99950.03;5012592;28;20062;-70
2022/03/14 08:33:45;;;;;;;10.88;2.30;;;;;;;7.11;38.99;99953.25;5012104;28;20109;-70
2022/03/14 08:36:11;;;;;;;7.53;2.35;;;;;;;7.20;38.63;99951.78;5012027;28;20069;-70
2022/03/14 08:38:38;;;;;;;5.85;2.33;;;;;;;7.25;38.53;99953.72;5013376;28;20609;-70
2022/03/14 08:41:04;;;;;;;8.38;2.50;;;;;;;7.41;38.44;99946.63;5012126;28;20050;-69
2022/03/14 08:43:30;;;;;;;10.70;2.50;;;;;;;7.52;38.22;99942.97;5013652;28;20053;-70
2022/03/14 08:45:58;;;;;;;9.85;2.28;;;;;;;7.62;38.07;99945.00;5010567;28;20060;-71
2022/03/14 08:48:25;;;;;;;9.70;2.45;;;;;;;7.63;37.75;99940.38;5010348;28;20054;-71
2022/03/14 08:50:51;;;;;;;11.77;2.70;;;;;;;7.71;37.96;99939.13;4996205;28;20579;-72
2022/03/14 08:53:18;;;;;;;8.70;3.10;;;;;;;7.65;37.85;99911.84;5011933;28;20457;-70
2022/03/14 08:55:44;;;;;;;7.97;2.40;;;;;;;7.81;37.76;99939.25;5006412;28;20534;-71
2022/03/14 08:58:11;;;;;;;10.40;3.78;;;;;;;7.87;37.49;99926.53;4990268;28;20049;-71
2022/03/14 09:00:38;;;;;;;7.63;2.33;;;;;;;7.90;37.34;99936.91;5001531;28;20056;-77
2022/03/14 09:03:04;;;;;;;12.35;2.47;;;;;;;7.95;37.34;99934.25;5004228;28;20050;-77
2022/03/14 09:05:30;;;;;;;6.82;2.25;;;;;;;7.95;37.35;99926.91;5002233;28;20058;-77
2022/03/14 09:07:57;;;;;;;7.80;2.45;;;;;;;8.16;36.72;99932.59;5011906;28;20054;-78
2022/03/14 09:10:24;;;;;;;6.90;2.60;;;;;;;8.21;36.78;99929.09;5011740;28;20514;-77
2022/03/14 09:12:50;;;;;;;9.13;2.40;;;;;;;8.40;36.54;99928.75;5011317;28;20060;-76
2022/03/14 09:15:18;;;;;;;6.88;2.38;;;;;;;8.63;36.26;99928.47;4997151;28;20046;-76
2022/03/14 09:17:51;;;;;;;8.25;2.55;;;;;;;8.84;35.86;99917.72;4992530;28;20054;-76
2022/03/14 09:20:19;;;;;;;7.03;2.30;;;;;;;9.07;35.65;99927.44;5000042;28;20084;-77
2022/03/14 09:22:46;;;;;;;5.78;2.13;;;;;;;9.19;35.58;99929.16;4977979;28;20430;-76
2022/03/14 09:25:13;;;;;;;7.13;2.17;;;;;;;9.42;35.33;99916.19;5012504;28;20542;-71
2022/03/14 09:27:40;;;;;;;17.08;7.45;;;;;;;9.60;35.03;99915.78;5012870;28;20058;-71
2022/03/14 09:30:08;;;;;;;16.63;6.82;;;;;;;9.64;34.48;99908.69;5011053;28;20064;-71
2022/03/14 09:32:34;;;;;;;13.30;4.88;;;;;;;9.73;34.49;99925.38;5012447;28;20607;-71
2022/03/14 09:35:00;;;;;;;17.10;4.00;;;;;;;9.71;34.52;99924.84;5012468;28;20094;-71
2022/03/14 09:37:27;;;;;;;11.18;3.10;;;;;;;9.58;34.69;99926.13;4994261;28;20580;-71
2022/03/14 09:39:53;;;;;;;8.70;2.90;;;;;;;9.72;34.63;99915.56;4991935;28;20109;-71
2022/03/14 09:42:23;;;;;;;8.20;2.57;;;;;;;10.04;34.27;99917.31;5005951;28;20197;-72
2022/03/14 09:44:54;;;;;;;9.73;2.67;;;;;;;9.99;33.99;99925.50;5012262;28;20065;-71
2022/03/14 09:47:24;;;;;;;11.02;2.80;;;;;;;10.18;33.48;99917.63;4988724;28;20053;-71
2022/03/14 09:49:54;;;;;;;8.45;2.67;;;;;;;10.46;33.26;99911.97;4997680;28;20116;-72
2022/03/14 09:52:22;;;;;;;10.00;2.38;;;;;;;10.48;33.13;99916.06;4988377;28;20521;-74
2022/03/14 09:54:51;;;;;;;10.35;2.38;;;;;;;10.36;33.02;99920.94;5008440;28;20534;-74
2022/03/14 09:57:19;;;;;;;10.82;2.50;;;;;;;10.54;32.58;99900.50;5011210;28;20501;-78
2022/03/14 09:59:49;;;;;;;9.15;2.50;;;;;;;10.73;32.39;99914.47;4994310;28;20057;-75
2022/03/14 10:02:16;;;;;;;7.32;2.50;;;;;;;10.70;32.49;99914.19;4993905;28;20054;-77
2022/03/14 10:04:42;;;;;;;9.07;2.80;;;;;;;10.80;32.49;99905.97;4994844;28;20058;-72
2022/03/14 10:07:08;;;;;;;7.93;2.60;;;;;;;10.91;31.99;99904.88;5012390;28;20676;-73
2022/03/14 10:09:34;;;;;;;7.10;2.20;;;;;;;11.05;31.67;99918.00;5004670;28;20069;-74
2022/03/14 10:12:01;;;;;;;6.85;2.22;;;;;;;10.96;31.83;99886.81;4983618;28;20506;-72
2022/03/14 10:14:28;;;;;;;5.32;2.10;;;;;;;11.46;31.28;99908.88;4976130;28;20581;-73
2022/03/14 10:16:55;;;;;;;7.55;2.50;;;;;;;11.69;30.98;99912.91;5011596;28;20153;-73
2022/03/14 10:19:29;;;;;;;9.43;2.30;;;;;;;11.90;30.67;99908.16;5007323;28;20060;-73
2022/03/14 10:21:55;;;;;;;8.07;2.70;;;;;;;12.15;30.66;99909.19;4990754;28;20160;-75
2022/03/14 10:24:23;;;;;;;7.82;2.63;;;;;;;12.18;30.21;99905.06;5011170;28;20591;-74
2022/03/14 10:26:50;;;;;;;21.50;8.63;;;;;;;12.39;29.79;99902.19;4971712;28;20058;-74
2022/03/14 10:29:18;;;;;;;10.63;4.40;;;;;;;12.48;29.42;99914.19;4965610;28;20060;-75
2022/03/14 10:31:54;;;;;;;11.23;3.15;;;;;;;12.65;29.43;99904.75;4991213;28;20050;-76
2022/03/14 10:34:21;;;;;;;9.85;2.70;;;;;;;12.87;29.35;99912.50;5011946;28;20525;-74
2022/03/14 10:36:49;;;;;;;9.45;2.85;;;;;;;12.80;29.31;99910.13;4963679;28;20569;-75
2022/03/14 10:39:18;;;;;;;8.98;2.40;;;;;;;12.74;29.36;99900.28;4999557;28;20486;-74
2022/03/14 10:41:46;;;;;;;10.93;2.70;;;;;;;12.77;29.46;99907.94;5008546;28;20163;-75
2022/03/14 10:44:22;;;;;;;8.27;2.78;;;;;;;12.91;29.11;99897.13;4994257;28;20552;-77
2022/03/14 10:46:48;;;;;;;8.07;2.60;;;;;;;13.17;29.15;99905.09;4998004;28;20069;-76
2022/03/14 10:49:16;;;;;;;8.27;2.70;;;;;;;13.22;28.73;99896.84;5006417;28;20134;-76
2022/03/14 10:52:06;;;;;;;7.35;2.75;;;;;;;13.60;28.94;99901.69;5005886;28;20553;-73
2022/03/14 10:54:35;;;;;;;9.98;2.70;;;;;;;13.71;29.03;99886.69;4990915;28;20425;-76
2022/03/14 10:57:03;;;;;;;10.52;3.13;;;;;;;13.65;28.68;99881.56;4992510;28;20159;-73
2022/03/14 10:59:38;;;;;;;8.27;2.95;;;;;;;13.54;28.60;99898.19;5010384;28;20054;-73
2022/03/14 11:02:12;;;;;;;7.05;2.70;;;;;;;13.73;28.50;99889.16;5152111;27;20133;-73
2022/03/14 11:04:46;;;;;;;11.55;3.03;;;;;;;13.92;28.22;99885.63;5141430;27;20056;-74
2022/03/14 11:07:13;;;;;;;8.50;2.55;;;;;;;14.13;28.36;99888.91;5107373;28;20158;-73
2022/03/14 11:09:40;;;;;;;9.10;2.88;;;;;;;14.20;28.00;99888.53;5137804;27;20042;-74
2022/03/14 11:12:09;;;;;;;36.78;16.20;;;;;;;14.31;27.79;99887.28;5128457;27;20119;-74
2022/03/14 11:14:39;;;;;;;19.98;8.80;;;;;;;14.43;27.51;99889.56;5106440;28;20067;-73
2022/03/14 11:17:17;;;;;;;18.08;6.00;;;;;;;14.38;27.57;99881.41;5087590;28;20134;-73
2022/03/14 11:19:44;;;;;;;10.52;4.07;;;;;;;14.54;27.33;99904.81;5108372;28;20086;-74
2022/03/14 11:22:12;;;;;;;10.43;3.70;;;;;;;14.85;27.15;99890.59;5108056;28;20052;-74
2022/03/14 11:24:41;;;;;;;10.45;3.33;;;;;;;15.19;26.76;99885.84;5123067;28;20040;-74
2022/03/14 11:27:13;;;;;;;9.43;2.75;;;;;;;15.16;26.40;99901.06;5109200;28;20075;-74
2022/03/14 11:29:41;;;;;;;7.43;2.80;;;;;;;15.32;26.15;99898.03;5092259;28;20097;-75
2022/03/14 11:32:09;;;;;;;9.07;2.60;;;;;;;15.48;26.16;99894.97;5108811;28;20047;-75
2022/03/14 11:34:36;;;;;;;11.10;2.95;;;;;;;15.68;26.01;99900.06;5103038;28;20043;-75
2022/03/14 11:37:04;;;;;;;10.05;3.47;;;;;;;15.93;25.69;99884.16;5109506;28;20089;-75